createdAt,value
2022-12-27T00:00:14.218Z,44.60
2022-12-27T00:03:02.706Z,105.20
2022-12-27T00:05:33.459Z,91.17
2022-12-27T00:08:01.960Z,95.47
2022-12-27T00:10:30.861Z,93.63
2022-12-27T00:12:59.305Z,103.93
2022-12-27T00:15:28.089Z,96.53
2022-12-27T00:17:56.799Z,96.67
2022-12-27T00:20:25.638Z,85.60
2022-12-27T00:22:55.471Z,98.50
2022-12-27T00:25:24.246Z,63.40
2022-12-27T00:27:52.743Z,88.37
2022-12-27T00:30:22.162Z,78.50
2022-12-27T00:32:50.741Z,90.50
2022-12-27T00:35:19.601Z,84.80
2022-12-27T00:37:48.184Z,114.10
2022-12-27T00:40:18.644Z,141.73
2022-12-27T00:42:47.125Z,129.37
2022-12-27T00:45:15.891Z,117.13
2022-12-27T00:47:44.381Z,124.07
2022-12-27T00:50:13.155Z,123.30
2022-12-27T00:52:41.705Z,134.63
2022-12-27T00:55:11.611Z,127.80
2022-12-27T00:57:41.553Z,101.43
2022-12-27T01:00:12.303Z,107.17
2022-12-27T01:02:41.080Z,101.00
2022-12-27T01:05:10.341Z,94.47
2022-12-27T01:07:38.801Z,103.63
2022-12-27T01:10:08.181Z,108.80
2022-12-27T01:12:37.357Z,130.73
2022-12-27T01:15:11.057Z,132.53
2022-12-27T01:17:39.520Z,111.70
2022-12-27T01:20:09.590Z,123.23
2022-12-27T01:22:38.254Z,106.50
2022-12-27T01:25:08.077Z,102.77
2022-12-27T01:27:36.549Z,102.60
2022-12-27T01:30:06.210Z,91.57
2022-12-27T01:32:36.615Z,82.07
2022-12-27T01:35:06.276Z,95.47
2022-12-27T01:37:34.823Z,76.37
2022-12-27T01:40:03.888Z,70.30
2022-12-27T01:42:49.603Z,58.53
2022-12-27T01:45:20.862Z,63.17
2022-12-27T01:47:58.031Z,68.77
2022-12-27T01:50:31.994Z,42.53
2022-12-27T01:53:05.394Z,48.83
2022-12-27T01:55:40.583Z,41.40
2022-12-27T01:58:14.106Z,48.57
2022-12-27T02:00:46.359Z,37.37
2022-12-27T02:03:21.494Z,34.37
2022-12-27T02:05:51.057Z,45.57
2022-12-27T02:08:37.184Z,36.83
2022-12-27T02:11:07.308Z,38.17
2022-12-27T02:13:39.127Z,49.13
2022-12-27T02:16:13.434Z,28.70
2022-12-27T02:18:43.917Z,46.20
2022-12-27T02:21:39.746Z,39.20
2022-12-27T02:24:33.476Z,66.47
2022-12-27T02:27:07.711Z,43.03
2022-12-27T02:29:54.932Z,36.87
2022-12-27T02:32:29.583Z,28.60
2022-12-27T02:35:06.196Z,34.17
2022-12-27T02:37:40.479Z,35.00
2022-12-27T02:40:28.668Z,38.60
2022-12-27T02:43:15.833Z,54.57
2022-12-27T02:46:09.444Z,49.43
2022-12-27T02:48:55.626Z,46.10
2022-12-27T02:51:53.237Z,45.10
2022-12-27T02:54:47.940Z,43.97
2022-12-27T02:57:26.416Z,37.07
2022-12-27T03:00:26.380Z,27.90
2022-12-27T03:03:24.884Z,44.93
2022-12-27T03:06:37.248Z,20.47
2022-12-27T03:09:48.780Z,43.43
2022-12-27T03:12:43.873Z,31.07
2022-12-27T03:15:43.476Z,55.97
2022-12-27T03:18:18.322Z,38.67
2022-12-27T03:21:07.483Z,37.10
2022-12-27T03:24:10.310Z,32.87
2022-12-27T03:26:42.184Z,36.67
2022-12-27T03:29:29.664Z,36.57
2022-12-27T03:32:18.361Z,35.37
2022-12-27T03:34:53.531Z,38.17
2022-12-27T03:37:45.861Z,48.37
2022-12-27T03:40:23.783Z,65.37
2022-12-27T03:43:12.966Z,37.53
2022-12-27T03:46:13.345Z,24.37
2022-12-27T03:48:57.994Z,47.77
2022-12-27T03:51:31.258Z,44.20
2022-12-27T03:54:07.064Z,65.77
2022-12-27T03:56:36.575Z,64.47
2022-12-27T03:59:06.222Z,74.87
2022-12-27T04:01:35.211Z,33.37
2022-12-27T04:04:03.718Z,43.13
2022-12-27T04:06:33.898Z,58.23
2022-12-27T04:09:19.377Z,37.47
2022-12-27T04:12:05.647Z,32.40
2022-12-27T04:14:51.404Z,35.77
2022-12-27T04:17:37.373Z,41.40
2022-12-27T04:20:24.036Z,27.97
2022-12-27T04:23:11.587Z,25.30
2022-12-27T04:25:57.749Z,46.17
2022-12-27T04:28:44.302Z,36.47
2022-12-27T04:31:30.243Z,33.93
2022-12-27T04:34:16.527Z,32.77
2022-12-27T04:36:45.165Z,34.20
2022-12-27T04:39:15.412Z,24.23
2022-12-27T04:42:01.487Z,37.17
2022-12-27T04:44:47.606Z,49.23
2022-12-27T04:47:35.879Z,49.17
2022-12-27T04:50:23.937Z,42.00
2022-12-27T04:53:09.907Z,62.80
2022-12-27T04:55:40.073Z,56.30
2022-12-27T04:58:08.557Z,79.70
2022-12-27T05:00:54.435Z,67.23
2022-12-27T05:03:24.912Z,48.57
2022-12-27T05:05:55.143Z,41.97
2022-12-27T05:08:40.981Z,47.87
2022-12-27T05:11:28.930Z,59.13
2022-12-27T05:14:03.200Z,40.80
2022-12-27T05:16:35.672Z,41.93
2022-12-27T05:19:05.123Z,41.90
2022-12-27T05:21:36.896Z,76.87
2022-12-27T05:24:23.885Z,54.90
2022-12-27T05:26:57.200Z,74.00
2022-12-27T05:29:25.620Z,75.30
2022-12-27T05:31:54.431Z,82.17
2022-12-27T05:34:22.921Z,63.13
2022-12-27T05:36:51.937Z,56.90
2022-12-27T05:39:20.391Z,67.53
2022-12-27T05:41:49.203Z,63.60
2022-12-27T05:44:19.082Z,51.03
2022-12-27T05:46:47.844Z,59.13
2022-12-27T05:49:16.570Z,90.17
2022-12-27T05:51:45.273Z,70.20
2022-12-27T05:54:13.717Z,69.33
2022-12-27T05:56:42.987Z,78.50
2022-12-27T05:59:11.437Z,81.43
2022-12-27T06:01:43.034Z,65.23
2022-12-27T06:04:11.814Z,69.00
2022-12-27T06:06:40.552Z,86.07
2022-12-27T06:09:08.968Z,79.67
2022-12-27T06:11:37.725Z,65.90
2022-12-27T06:14:06.299Z,59.33
2022-12-27T06:16:35.125Z,71.57
2022-12-27T06:19:05.042Z,56.47
2022-12-27T06:21:33.808Z,44.03
2022-12-27T06:24:02.306Z,56.33
2022-12-27T06:26:32.265Z,81.77
2022-12-27T06:29:00.736Z,74.40
2022-12-27T06:31:30.012Z,67.10
2022-12-27T06:33:59.002Z,55.37
2022-12-27T06:36:30.321Z,63.60
2022-12-27T06:38:59.117Z,61.23
2022-12-27T06:41:27.966Z,55.93
2022-12-27T06:43:58.057Z,69.17
2022-12-27T06:46:26.889Z,58.90
2022-12-27T06:48:55.529Z,42.13
2022-12-27T06:51:24.440Z,57.53
2022-12-27T06:53:54.416Z,66.97
2022-12-27T06:56:24.297Z,66.93
2022-12-27T06:58:53.935Z,61.27
2022-12-27T07:01:25.572Z,67.27
2022-12-27T07:03:55.755Z,58.03
2022-12-27T07:06:26.956Z,76.53
2022-12-27T07:08:57.479Z,83.83
2022-12-27T07:11:27.319Z,63.17
2022-12-27T07:13:57.994Z,65.40
2022-12-27T07:16:28.416Z,96.40
2022-12-27T07:18:58.559Z,62.20
2022-12-27T07:21:29.512Z,89.13
2022-12-27T07:23:59.402Z,66.03
2022-12-27T07:26:30.667Z,63.90
2022-12-27T07:29:01.461Z,72.57
2022-12-27T07:31:31.901Z,66.10
2022-12-27T07:34:02.567Z,52.97
2022-12-27T07:36:35.110Z,65.70
2022-12-27T07:39:05.668Z,75.37
2022-12-27T07:41:35.662Z,82.00
2022-12-27T07:44:04.869Z,82.27
2022-12-27T07:46:35.449Z,79.00
2022-12-27T07:49:04.058Z,66.83
2022-12-27T07:51:32.964Z,60.90
2022-12-27T07:54:01.523Z,59.47
2022-12-27T07:56:31.987Z,65.87
2022-12-27T07:59:02.289Z,80.10
2022-12-27T08:02:00.362Z,84.50
2022-12-27T08:04:29.086Z,65.47
2022-12-27T08:07:01.246Z,76.43
2022-12-27T08:09:33.232Z,75.23
2022-12-27T08:12:03.425Z,76.63
2022-12-27T08:14:32.004Z,92.70
2022-12-27T08:17:06.071Z,77.70
2022-12-27T08:19:34.801Z,69.87
2022-12-27T08:22:05.308Z,67.63
2022-12-27T08:24:34.065Z,64.63
2022-12-27T08:27:04.497Z,52.90
2022-12-27T08:29:33.206Z,43.90
2022-12-27T08:32:02.206Z,64.37
2022-12-27T08:34:30.749Z,63.93
2022-12-27T08:36:59.579Z,72.57
2022-12-27T08:39:30.031Z,88.47
2022-12-27T08:41:58.935Z,71.67
2022-12-27T08:44:28.922Z,73.70
2022-12-27T08:46:59.447Z,94.17
2022-12-27T08:49:27.982Z,68.67
2022-12-27T08:51:56.858Z,63.80
2022-12-27T08:54:25.475Z,72.43
2022-12-27T08:56:54.286Z,67.93
2022-12-27T08:59:23.043Z,65.50
2022-12-27T09:01:53.521Z,70.30
2022-12-27T09:04:22.889Z,74.07
2022-12-27T09:06:51.857Z,74.67
2022-12-27T09:09:21.148Z,59.93
2022-12-27T09:11:49.919Z,81.20
2022-12-27T09:14:18.472Z,154.17
2022-12-27T09:16:47.488Z,370.53
2022-12-27T09:19:17.560Z,368.23
2022-12-27T09:21:46.939Z,465.70
2022-12-27T09:24:15.891Z,436.07
2022-12-27T09:26:45.267Z,309.63
2022-12-27T09:29:13.939Z,111.53
2022-12-27T09:31:43.074Z,118.57
2022-12-27T09:34:12.014Z,122.97
2022-12-27T09:36:42.530Z,119.37
2022-12-27T09:39:13.665Z,110.30
2022-12-27T09:42:45.006Z,126.67
2022-12-27T09:44:45.890Z,115.33
2022-12-27T09:47:18.458Z,118.67
2022-12-27T09:49:48.327Z,109.57
2022-12-27T09:52:23.991Z,121.37
2022-12-27T09:55:04.780Z,121.40
2022-12-27T09:57:38.947Z,118.83
2022-12-27T10:00:16.049Z,116.57
2022-12-27T10:02:46.297Z,115.20
2022-12-27T10:05:22.096Z,116.57
2022-12-27T10:08:09.772Z,115.83
2022-12-27T10:10:43.605Z,112.80
2022-12-27T10:13:34.602Z,138.40
2022-12-27T10:16:13.756Z,123.60
2022-12-27T10:18:55.137Z,121.50
2022-12-27T10:21:25.299Z,120.43
2022-12-27T10:23:58.755Z,106.30
2022-12-27T10:26:27.726Z,120.17
2022-12-27T10:29:01.592Z,116.33
2022-12-27T10:31:33.086Z,121.50
2022-12-27T10:34:06.262Z,107.33
2022-12-27T10:36:39.105Z,114.73
2022-12-27T10:39:16.950Z,109.00
2022-12-27T10:42:01.498Z,103.80
2022-12-27T10:44:30.677Z,108.40
2022-12-27T10:46:59.561Z,102.47
2022-12-27T10:49:30.270Z,105.10
2022-12-27T10:52:07.575Z,118.30
2022-12-27T10:54:52.052Z,119.77
2022-12-27T10:57:28.033Z,110.60
2022-12-27T11:00:18.237Z,112.83
2022-12-27T11:02:54.398Z,113.00
2022-12-27T11:05:26.335Z,115.10
2022-12-27T11:07:55.336Z,122.17
2022-12-27T11:10:27.298Z,110.13
2022-12-27T11:12:57.847Z,117.77
2022-12-27T11:15:28.023Z,113.03
2022-12-27T11:17:58.897Z,107.77
2022-12-27T11:20:31.805Z,111.60
2022-12-27T11:23:03.357Z,111.53
2022-12-27T11:25:35.625Z,110.70
2022-12-27T11:28:07.499Z,123.77
2022-12-27T11:30:40.005Z,110.70
2022-12-27T11:33:24.545Z,105.40
2022-12-27T11:35:56.997Z,115.83
2022-12-27T11:38:27.637Z,116.40
2022-12-27T11:41:06.676Z,115.60
2022-12-27T11:43:46.932Z,115.30
2022-12-27T11:46:25.549Z,114.90
2022-12-27T11:48:58.521Z,102.00
2022-12-27T11:51:50.484Z,134.87
2022-12-27T11:54:30.853Z,117.83
2022-12-27T11:57:16.805Z,122.97
2022-12-27T11:59:50.696Z,114.50
2022-12-27T12:02:40.881Z,115.63
2022-12-27T12:05:46.882Z,106.57
2022-12-27T12:08:22.787Z,113.93
2022-12-27T12:10:55.053Z,111.17
2022-12-27T12:14:00.726Z,106.03
2022-12-27T12:17:04.870Z,117.33
2022-12-27T12:19:53.787Z,119.87
2022-12-27T12:22:30.883Z,125.13
2022-12-27T12:25:23.297Z,114.90
2022-12-27T12:27:59.397Z,133.77
2022-12-27T12:30:50.443Z,117.00
2022-12-27T12:33:43.333Z,136.57
2022-12-27T12:36:37.415Z,115.83
2022-12-27T12:39:19.333Z,116.40
2022-12-27T12:42:01.677Z,114.57
2022-12-27T12:44:54.874Z,104.10
2022-12-27T12:47:54.001Z,119.80
2022-12-27T12:50:52.563Z,126.97
2022-12-27T12:53:36.507Z,109.10
2022-12-27T12:56:24.685Z,117.80
2022-12-27T12:59:00.291Z,118.83
2022-12-27T13:01:35.915Z,119.40
2022-12-27T13:04:32.421Z,115.33
2022-12-27T13:07:39.773Z,119.23
2022-12-27T13:10:43.571Z,114.33
2022-12-27T13:13:17.491Z,115.70
2022-12-27T13:15:58.095Z,108.67
2022-12-27T13:18:35.160Z,107.50
2022-12-27T13:21:23.741Z,119.77
2022-12-27T13:24:03.176Z,114.57
2022-12-27T13:26:37.120Z,123.73
2022-12-27T13:29:41.354Z,114.90
2022-12-27T13:32:21.918Z,108.90
2022-12-27T13:35:03.493Z,114.53
2022-12-27T13:37:45.329Z,111.73
2022-12-27T13:40:32.481Z,116.23
2022-12-27T13:43:19.327Z,121.67
2022-12-27T13:46:04.703Z,112.07
2022-12-27T13:48:56.619Z,110.93
2022-12-27T13:51:42.889Z,116.27
2022-12-27T13:54:51.038Z,115.13
2022-12-27T13:57:39.988Z,114.03
2022-12-27T14:00:18.328Z,119.43
2022-12-27T14:03:25.821Z,120.87
2022-12-27T14:06:04.906Z,118.40
2022-12-27T14:08:49.420Z,115.77
2022-12-27T14:11:38.515Z,122.17
2022-12-27T14:14:11.338Z,112.83
2022-12-27T14:16:57.560Z,122.20
2022-12-27T14:19:53.848Z,112.87
2022-12-27T14:23:01.953Z,114.97
2022-12-27T14:26:01.794Z,116.73
2022-12-27T14:29:09.511Z,122.17
2022-12-27T14:32:06.718Z,125.83
2022-12-27T14:35:21.026Z,112.43
2022-12-27T14:38:20.031Z,110.30
2022-12-27T14:41:24.286Z,109.80
2022-12-27T14:44:28.247Z,120.97
2022-12-27T14:47:20.003Z,117.63
2022-12-27T14:50:24.650Z,123.20
2022-12-27T14:53:32.672Z,115.30
2022-12-27T14:56:12.889Z,125.63
2022-12-27T14:58:48.484Z,115.13
2022-12-27T15:01:27.237Z,109.83
2022-12-27T15:04:12.050Z,113.27
2022-12-27T15:06:57.544Z,114.97
2022-12-27T15:09:35.417Z,120.60
2022-12-27T15:12:15.702Z,121.50
2022-12-27T15:15:11.849Z,128.20
2022-12-27T15:17:59.874Z,138.93
2022-12-27T15:20:56.468Z,137.77
2022-12-27T15:23:35.545Z,116.93
2022-12-27T15:26:15.985Z,120.27
2022-12-27T15:29:07.260Z,138.77
2022-12-27T15:31:44.086Z,118.50
2022-12-27T15:34:31.665Z,121.60
2022-12-27T15:37:02.726Z,118.77
2022-12-27T15:39:48.157Z,104.93
2022-12-27T15:42:48.603Z,114.57
2022-12-27T15:45:33.802Z,116.33
2022-12-27T15:48:29.256Z,103.87
2022-12-27T15:51:04.713Z,124.13
2022-12-27T15:53:55.366Z,117.53
2022-12-27T15:56:34.965Z,118.80
2022-12-27T15:59:46.872Z,105.00
2022-12-27T16:02:27.518Z,120.40
2022-12-27T16:04:59.636Z,107.83
2022-12-27T16:07:39.242Z,118.93
2022-12-27T16:10:45.877Z,111.63
2022-12-27T16:13:27.551Z,109.53
2022-12-27T16:15:57.320Z,114.97
2022-12-27T16:19:03.199Z,115.33
2022-12-27T16:21:40.819Z,121.73
2022-12-27T16:24:14.750Z,110.83
2022-12-27T16:26:54.548Z,112.63
2022-12-27T16:29:28.380Z,112.77
2022-12-27T16:32:12.362Z,128.83
2022-12-27T16:34:41.596Z,109.13
2022-12-27T16:37:24.550Z,112.13
2022-12-27T16:40:14.813Z,110.57
2022-12-27T16:43:30.592Z,121.87
2022-12-27T16:46:18.450Z,116.93
2022-12-27T16:49:03.946Z,117.17
2022-12-27T16:51:45.311Z,114.43
2022-12-27T16:54:26.348Z,113.53
2022-12-27T16:57:31.663Z,117.97
2022-12-27T17:00:03.432Z,109.50
2022-12-27T17:02:40.828Z,129.40
2022-12-27T17:05:35.440Z,110.70
2022-12-27T17:08:20.376Z,136.83
2022-12-27T17:11:04.073Z,116.77
2022-12-27T17:13:43.900Z,114.47
2022-12-27T17:16:23.928Z,111.83
2022-12-27T17:18:57.919Z,125.37
2022-12-27T17:21:30.931Z,108.93
2022-12-27T17:24:02.572Z,111.00
2022-12-27T17:26:54.212Z,116.20
2022-12-27T17:29:30.881Z,126.07
2022-12-27T17:32:10.629Z,117.17
2022-12-27T17:34:52.069Z,114.60
2022-12-27T17:37:27.665Z,123.40
2022-12-27T17:40:12.200Z,123.60
2022-12-27T17:43:20.079Z,127.90
2022-12-27T17:45:53.722Z,125.80
2022-12-27T17:48:37.780Z,120.40
2022-12-27T17:51:13.491Z,121.63
2022-12-27T17:54:04.889Z,124.43
2022-12-27T17:57:01.735Z,108.03
2022-12-27T17:59:32.326Z,115.27
2022-12-27T18:02:05.499Z,125.73
2022-12-27T18:04:37.700Z,117.83
2022-12-27T18:07:10.548Z,127.67
2022-12-27T18:09:44.721Z,119.10
2022-12-27T18:12:17.512Z,171.87
2022-12-27T18:14:52.552Z,224.50
2022-12-27T18:17:28.920Z,248.40
2022-12-27T18:20:36.317Z,256.27
2022-12-27T18:34:08.647Z,270.00
2022-12-27T18:37:02.027Z,111.97
2022-12-27T18:39:33.908Z,123.07
2022-12-27T18:42:04.565Z,116.50
2022-12-27T18:44:40.276Z,118.40
2022-12-27T18:47:16.628Z,115.93
2022-12-27T18:49:45.887Z,126.40
2022-12-27T18:52:16.782Z,120.50
2022-12-27T18:54:47.968Z,113.33
2022-12-27T18:57:31.991Z,125.07
2022-12-27T19:00:15.109Z,116.97
2022-12-27T19:02:44.814Z,115.47
2022-12-27T19:05:26.484Z,112.20
2022-12-27T19:08:00.706Z,114.23
2022-12-27T19:10:33.562Z,119.30
2022-12-27T19:13:02.700Z,124.07
2022-12-27T19:15:40.170Z,113.43
2022-12-27T19:18:23.141Z,123.30
2022-12-27T19:20:56.858Z,117.23
2022-12-27T19:23:31.442Z,116.77
2022-12-27T19:26:05.735Z,132.17
2022-12-27T19:28:38.722Z,232.07
2022-12-27T19:31:22.089Z,155.33
2022-12-27T19:33:57.649Z,150.93
2022-12-27T19:36:28.492Z,139.03
2022-12-27T19:39:00.030Z,153.90
2022-12-27T19:42:16.338Z,133.77
2022-12-27T19:44:51.103Z,169.57
2022-12-27T19:47:20.923Z,187.23
2022-12-27T19:50:05.109Z,155.63
2022-12-27T19:52:43.900Z,140.13
2022-12-27T19:55:18.653Z,113.97
2022-12-27T19:57:49.375Z,110.13
2022-12-27T20:00:19.217Z,117.30
2022-12-27T20:02:48.406Z,120.80
2022-12-27T20:05:17.734Z,114.47
2022-12-27T20:08:07.606Z,111.50
2022-12-27T20:10:36.691Z,125.20
2022-12-27T20:13:06.946Z,116.97
2022-12-27T20:15:35.827Z,123.37
2022-12-27T20:18:04.845Z,128.00
2022-12-27T20:20:33.723Z,129.97
2022-12-27T20:23:02.501Z,117.73
2022-12-27T20:25:33.081Z,121.73
2022-12-27T20:28:02.208Z,124.63
2022-12-27T20:30:33.384Z,123.93
2022-12-27T20:33:02.888Z,124.90
2022-12-27T20:35:31.776Z,117.27
2022-12-27T20:38:00.907Z,115.37
2022-12-27T20:40:29.806Z,122.27
2022-12-27T20:42:59.042Z,114.90
2022-12-27T20:45:28.086Z,118.33
2022-12-27T20:47:58.871Z,121.37
2022-12-27T20:50:29.167Z,117.37
2022-12-27T20:52:58.563Z,119.33
2022-12-27T20:55:28.002Z,116.63
2022-12-27T20:57:59.396Z,130.43
2022-12-27T21:00:28.541Z,121.03
2022-12-27T21:03:00.246Z,122.50
2022-12-27T21:05:29.619Z,120.87
2022-12-27T21:07:59.034Z,116.30
2022-12-27T21:10:28.982Z,118.80
2022-12-27T21:12:59.198Z,120.70
2022-12-27T21:15:31.042Z,118.33
2022-12-27T21:18:02.122Z,123.07
2022-12-27T21:20:30.992Z,123.57
2022-12-27T21:23:00.057Z,119.97
2022-12-27T21:25:28.870Z,114.43
2022-12-27T21:27:57.926Z,118.37
2022-12-27T21:30:26.721Z,122.10
2022-12-27T21:32:55.832Z,120.50
2022-12-27T21:35:25.914Z,122.87
2022-12-27T21:37:55.003Z,120.30
2022-12-27T21:40:23.823Z,119.30
2022-12-27T21:42:52.982Z,120.50
2022-12-27T21:45:21.875Z,115.43
2022-12-27T21:47:50.981Z,118.70
2022-12-27T21:50:19.696Z,130.60
2022-12-27T21:52:50.084Z,116.00
2022-12-27T21:55:18.865Z,113.20
2022-12-27T21:57:47.807Z,121.27
2022-12-27T22:00:16.918Z,124.93
2022-12-27T22:02:46.370Z,108.30
2022-12-27T22:05:15.673Z,118.00
2022-12-27T22:07:45.102Z,122.00
2022-12-27T22:10:14.968Z,112.93
2022-12-27T22:12:43.943Z,121.47
2022-12-27T22:15:13.145Z,122.97
2022-12-27T22:17:41.852Z,133.43
2022-12-27T22:20:11.218Z,126.83
2022-12-27T22:22:40.103Z,112.50
2022-12-27T22:25:10.747Z,115.27
2022-12-27T22:27:40.883Z,127.23
2022-12-27T22:30:10.000Z,130.17
2022-12-27T22:32:39.057Z,117.60
2022-12-27T22:35:07.985Z,118.20
2022-12-27T22:37:37.010Z,117.90
2022-12-27T22:40:06.249Z,124.13
2022-12-27T22:42:57.859Z,114.80
2022-12-27T22:45:26.768Z,115.33
2022-12-27T22:47:55.772Z,117.53
2022-12-27T22:50:24.478Z,121.67
2022-12-27T22:52:53.272Z,127.77
2022-12-27T22:55:21.797Z,134.67
2022-12-27T22:57:50.756Z,114.00
2022-12-27T23:00:20.659Z,118.50
2022-12-27T23:02:49.446Z,123.13
2022-12-27T23:05:18.453Z,122.40
2022-12-27T23:08:05.389Z,123.33
2022-12-27T23:10:35.595Z,132.00
2022-12-27T23:13:04.399Z,121.47
2022-12-27T23:15:34.321Z,111.80
2022-12-27T23:18:03.118Z,121.07
2022-12-27T23:20:34.648Z,115.57
2022-12-27T23:23:04.058Z,119.53
2022-12-27T23:25:32.554Z,107.20
2022-12-27T23:28:01.712Z,120.10
2022-12-27T23:30:30.566Z,122.10
2022-12-27T23:33:00.780Z,117.97
2022-12-27T23:35:29.225Z,110.87
2022-12-27T23:37:58.212Z,120.80
2022-12-27T23:40:26.727Z,114.50
2022-12-27T23:42:59.415Z,119.33
2022-12-27T23:45:41.160Z,124.57
2022-12-27T23:48:11.595Z,109.33
2022-12-27T23:50:40.479Z,123.23
2022-12-27T23:53:09.464Z,115.10
2022-12-27T23:55:38.164Z,119.57
2022-12-27T23:58:07.466Z,119.67
